Arceburgo, Brazil
Current Conditions -  °F | °C
As of 9:00 AM on Tuesday 21 Oct 2014 (Local Time) from SBYS Reporting Station
Clear Clear  
Wind Chill: 68°   Ceiling: Unl
Heat Index: 68°   Visibility: 6mi
Dew Point: 59°   Wind: 17mph
Humidity: 73%   Direction: 160°SSE
Pressure: 30.09"   Gusts: NA
Location:  21.36°S, 46.94°W
Report Text: SBYS 211100Z 16015KT CAVOK 20/15 Q1019
Loading
Personal Weather Stations






























Interactive Weather Map
Tropical Storm Tracking
New forecast layout! Learn more

10-Day Weather Forecast

Advertisements
Track Severe Weather on mobile